Time;durP1;ratioP1;P1;durP2;ratioP2;P2;SDS_P1;SDS_P2;PMS_P1;PMS_P2;Temp;Humidity;BMP_temperature;BMP_pressure;BME280_temperature;BME280_humidity;BME280_pressure;Samples;Min_cycle;Max_cycle;Signal;HPM_P1;HPM_P2
2023/01/16 00:02:19;;;;;;;;;;;;;;;;;;6209464;23;19916;-83
2023/01/16 00:04:45;;;;;;;;;;;;;;;4.74;100.00;67297.16;6208992;23;19914;-82
2023/01/16 00:07:10;;;;;;;;;;;;;;;;;;6208252;23;19912;-82
2023/01/16 00:09:35;;;;;;;;;;;;;;;4.74;100.00;67297.72;6183335;23;19915;-82
2023/01/16 00:12:00;;;;;;;;;;;;;;;;;;6181230;23;20018;-83
2023/01/16 00:14:25;;;;;;;;;;;;;;;;;;6210305;23;19908;-83
2023/01/16 00:16:51;;;;;;;;;;;;;;;4.78;100.00;67301.13;6208164;23;19907;-82
2023/01/16 00:19:16;;;;;;;;;;;;;;;;;;6210366;23;19991;-82
2023/01/16 00:21:41;;;;;;;;;;;;;;;;;;6207488;23;19907;-84
2023/01/16 00:24:06;;;;;;;;;;;;;;;;;;6208563;23;20322;-83
2023/01/16 00:26:32;;;;;;;;;;;;;;;4.80;100.00;67311.28;6182077;23;19911;-83
2023/01/16 00:28:57;;;;;;;;;;;;;;;4.79;100.00;67307.53;6208408;23;20258;-83
2023/01/16 00:31:23;;;;;;;;;;;;;;;4.80;100.00;67308.66;6210014;23;19912;-83
2023/01/16 00:33:49;;;;;;;;;;;;;;;;;;6209414;23;20322;-82
2023/01/16 00:36:14;;;;;;;;;;;;;;;4.78;100.00;67306.41;6208371;23;20318;-84
2023/01/16 00:38:39;;;;;;;;;;;;;;;;;;6210550;23;19919;-83
2023/01/16 00:41:04;;;;;;;;;;;;;;;4.80;100.00;67308.66;6209561;23;20388;-83
2023/01/16 00:43:30;;;;;;;;;;;;;;;4.79;100.00;67307.53;6211294;23;19908;-83
2023/01/16 00:45:56;;;;;;;;;;;;;;;;;;6207361;23;19907;-84
2023/01/16 00:48:21;;;;;;;;;;;;;;;4.78;100.00;67309.03;6209786;23;19912;-84
2023/01/16 00:50:46;;;;;;;;;;;;;;;4.78;100.00;67309.03;6209550;23;19908;-84
2023/01/16 00:53:12;;;;;;;;;;;;;;;4.79;100.00;67302.25;6209721;23;19920;-84
2023/01/16 00:55:37;;;;;;;;;;;;;;;4.80;100.00;67308.66;6182637;23;19914;-82
2023/01/16 00:58:02;;;;;;;;;;;;;;;;;;6208841;23;19918;-84
2023/01/16 01:00:27;;;;;;;;;;;;;;;4.76;100.00;67304.69;6210557;23;19915;-82
2023/01/16 01:02:53;;;;;;;;;;;;;;;4.75;100.00;67298.88;6208717;23;19912;-83
2023/01/16 01:05:18;;;;;;;;;;;;;;;4.71;100.00;67294.34;6207707;23;19982;-82
2023/01/16 01:07:43;;;;;;;;;;;;;;;4.70;100.00;67293.22;6209011;23;19907;-83
2023/01/16 01:10:09;;;;;;;;;;;;;;;4.67;100.00;67295.09;6209225;23;19986;-83
2023/01/16 01:12:34;;;;;;;;;;;;;;;;;;6209164;23;19912;-83
2023/01/16 01:14:59;;;;;;;;;;;;;;;;;;6209173;23;19939;-84
2023/01/16 01:17:24;;;;;;;;;;;;;;;;;;6209711;23;19983;-82
2023/01/16 01:19:50;;;;;;;;;;;;;;;4.58;100.00;67284.94;6209817;23;19908;-82
2023/01/16 01:22:18;;;;;;;;;;;;;;;4.54;100.00;67283.06;6210224;23;19907;-83
2023/01/16 01:24:44;;;;;;;;;;;;;;;;;;6209447;23;20001;-82
2023/01/16 01:27:09;;;;;;;;;;;;;;;4.48;100.00;67273.66;6181525;23;19908;-82
2023/01/16 01:29:34;;;;;;;;;;;;;;;4.42;100.00;67270.06;6210970;23;19919;-82
2023/01/16 01:32:00;;;;;;;;;;;;;;;4.38;100.00;67262.94;6209828;23;19912;-83
2023/01/16 01:34:25;;;;;;;;;;;;;;;4.37;100.00;67266.50;6184133;23;19915;-82
2023/01/16 01:36:50;;;;;;;;;;;;;;;4.33;100.00;67257.28;6182072;23;19939;-83
2023/01/16 01:39:16;;;;;;;;;;;;;;;4.29;100.00;67252.78;6183403;23;19973;-83
2023/01/16 01:41:41;;;;;;;;;;;;;;;4.23;100.00;67246.00;6221443;23;19912;-83
2023/01/16 01:44:25;;;;;;;;;;;;;;;4.20;100.00;67243.19;6219369;23;19907;-83
2023/01/16 01:46:50;;;;;;;;;;;;;;;4.16;100.00;67243.38;6192019;23;19972;-83
2023/01/16 01:49:22;;;;;;;;;;;;;;;4.16;100.00;67238.09;6222141;23;20289;-83
2023/01/16 01:51:47;;;;;;;;;;;;;;;;;;6221964;23;19912;-83
2023/01/16 01:54:18;;;;;;;;;;;;;;;4.12;100.00;67234.16;6222911;23;19918;-84
2023/01/16 01:56:43;;;;;;;;;;;;;;;;;;6195019;23;19918;-84
2023/01/16 01:59:08;;;;;;;;;;;;;;;;;;6223582;23;19908;-85
2023/01/16 02:01:33;;;;;;;;;;;;;;;;;;6225183;23;19986;-84
2023/01/16 02:04:01;;;;;;;;;;;;;;;4.11;100.00;67233.00;6223134;23;19912;-83
2023/01/16 02:06:31;;;;;;;;;;;;;;;4.12;100.00;67233.59;6223392;23;19947;-84
2023/01/16 02:08:56;;;;;;;;;;;;;;;;;;6198329;23;19915;-83
2023/01/16 02:11:36;;;;;;;;;;;;;;;4.09;100.00;67230.22;6198104;23;21827;-84
2023/01/16 02:14:06;;;;;;;;;;;;;;;4.06;100.00;67227.94;6196712;23;19907;-83
2023/01/16 02:19:38;;;;;;;;;;;;;;;3.96;100.00;67216.66;6224577;23;19923;-83
2023/01/16 02:22:03;;;;;;;;;;;;;;;;;;6224572;23;19986;-83
2023/01/16 02:24:28;;;;;;;;;;;;;;;;;;6225688;23;19919;-83
2023/01/16 02:26:53;;;;;;;;;;;;;;;;;;6226161;23;19908;-84
2023/01/16 02:29:18;;;;;;;;;;;;;;;3.94;100.00;67216.47;6193917;23;19927;-85
2023/01/16 02:32:13;;;;;;;;;;;;;;;3.93;100.00;67212.72;6193646;23;19912;-83
2023/01/16 02:34:38;;;;;;;;;;;;;;;;;;6082556;23;19910;-84
2023/01/16 02:37:25;;;;;;;;;;;;;;;3.96;100.00;67216.66;6219304;23;19908;-84
2023/01/16 02:39:59;;;;;;;;;;;;;;;3.96;100.00;67216.66;6221492;23;20301;-83
2023/01/16 02:42:37;;;;;;;;;;;;;;;3.97;100.00;67217.78;6194146;23;19934;-83
2023/01/16 02:45:08;;;;;;;;;;;;;;;3.98;100.00;67213.66;6220167;23;19935;-84
2023/01/16 02:47:45;;;;;;;;;;;;;;;4.00;100.00;67220.59;6221335;23;19919;-85
2023/01/16 02:50:20;;;;;;;;;;;;;;;3.98;100.00;67218.34;6220856;23;20464;-83
2023/01/16 02:52:49;;;;;;;;;;;;;;;4.00;100.00;67221.19;6222473;23;19934;-83
2023/01/16 02:55:15;;;;;;;;;;;;;;;;;;6220176;23;19986;-83
2023/01/16 02:57:45;;;;;;;;;;;;;;;4.01;100.00;67221.72;6222475;23;19908;-84
2023/01/16 03:00:10;;;;;;;;;;;;;;;;;;6221526;23;19914;-84
2023/01/16 03:02:35;;;;;;;;;;;;;;;4.03;100.00;67224.56;6195890;23;19931;-83
2023/01/16 03:05:00;;;;;;;;;;;;;;;4.06;100.00;67227.38;6220669;23;19916;-85
2023/01/16 03:07:50;;;;;;;;;;;;;;;4.06;100.00;67227.38;6223962;23;19908;-84
2023/01/16 03:10:33;;;;;;;;;;;;;;;4.07;100.00;67229.06;6222184;23;20350;-84
2023/01/16 03:13:09;;;;;;;;;;;;;;;4.09;100.00;67230.78;6222544;23;19915;-84
2023/01/16 03:15:44;;;;;;;;;;;;;;;4.11;100.00;67233.00;6221992;23;20345;-84
2023/01/16 03:18:15;;;;;;;;;;;;;;;4.10;100.00;67231.88;6221889;23;19939;-85
2023/01/16 03:20:41;;;;;;;;;;;;;;;4.10;100.00;67231.31;6194710;23;19908;-84
2023/01/16 03:23:06;;;;;;;;;;;;;;;;;;6222055;23;20392;-84
2023/01/16 03:25:31;;;;;;;;;;;;;;;;;;6224275;23;20343;-85
2023/01/16 03:27:56;;;;;;;;;;;;;;;4.01;100.00;67222.28;6223381;23;19911;-84
2023/01/16 03:30:28;;;;;;;;;;;;;;;3.97;100.00;67217.78;6196377;23;20352;-84
2023/01/16 03:32:53;;;;;;;;;;;;;;;;;;6195776;23;19952;-85
2023/01/16 03:35:37;;;;;;;;;;;;;;;3.95;100.00;67214.97;6196450;23;19906;-85
2023/01/16 03:38:07;;;;;;;;;;;;;;;3.94;100.00;67213.81;6223002;23;19908;-85
2023/01/16 03:40:32;;;;;;;;;;;;;;;;;;6225158;23;19918;-84
2023/01/16 03:42:57;;;;;;;;;;;;;;;;;;6224226;23;19907;-85
2023/01/16 03:45:30;;;;;;;;;;;;;;;3.87;100.00;67205.94;6226542;23;19919;-83
2023/01/16 03:48:03;;;;;;;;;;;;;;;3.83;100.00;67205.19;6196617;23;20385;-85
2023/01/16 03:50:28;;;;;;;;;;;;;;;;;;6225981;23;19920;-83
2023/01/16 03:52:57;;;;;;;;;;;;;;;3.84;100.00;67197.84;6198087;23;19919;-85
2023/01/16 03:55:22;;;;;;;;;;;;;;;;;;6197945;23;19914;-84
2023/01/16 03:57:47;;;;;;;;;;;;;;;3.87;100.00;67205.94;6197913;23;19931;-84
2023/01/16 04:00:13;;;;;;;;;;;;;;;3.87;100.00;67211.75;6224875;23;19941;-84
2023/01/16 04:02:38;;;;;;;;;;;;;;;;;;6199397;23;19912;-83
2023/01/16 04:05:03;;;;;;;;;;;;;;;;;;6224407;23;19908;-84
2023/01/16 04:07:29;;;;;;;;;;;;;;;;;;6199489;23;19927;-84
2023/01/16 04:10:00;;;;;;;;;;;;;;;3.77;100.00;67195.22;6226731;23;19908;-84
2023/01/16 04:12:28;;;;;;;;;;;;;;;3.72;100.00;67192.78;6226747;23;19908;-85
2023/01/16 04:14:53;;;;;;;;;;;;;;;;;;6227079;23;19948;-85
2023/01/16 04:17:18;;;;;;;;;;;;;;;;;;6226054;23;19911;-84
2023/01/16 04:19:43;;;;;;;;;;;;;;;;;;6227083;23;19911;-84
2023/01/16 04:22:18;;;;;;;;;;;;;;;3.56;100.00;67172.66;6228352;23;19911;-84
2023/01/16 04:24:43;;;;;;;;;;;;;;;3.55;100.00;67170.97;6228621;23;20465;-85
2023/01/16 04:27:09;;;;;;;;;;;;;;;;;;6228022;23;19908;-84
2023/01/16 04:29:34;;;;;;;;;;;;;;;3.42;100.00;67151.59;6202906;23;19912;-86
2023/01/16 04:31:59;;;;;;;;;;;;;;;3.39;100.00;67154.06;6228023;23;19989;-85
2023/01/16 04:34:24;;;;;;;;;;;;;;;3.32;100.00;67145.59;6229816;23;19926;-85
2023/01/16 04:36:49;;;;;;;;;;;;;;;3.28;100.00;67141.06;6229161;23;20269;-85
2023/01/16 04:39:15;;;;;;;;;;;;;;;3.25;100.00;67137.69;6229870;23;20294;-84
2023/01/16 04:41:40;;;;;;;;;;;;;;;3.23;100.00;67136.00;6232126;23;19895;-86
2023/01/16 04:44:07;;;;;;;;;;;;;;;3.21;100.00;67133.19;6233090;23;19908;-84
2023/01/16 04:46:32;;;;;;;;;;;;;;;;;;6232257;23;19896;-85
2023/01/16 04:48:57;;;;;;;;;;;;;;;3.14;100.00;67125.84;6233721;23;19930;-84
2023/01/16 04:51:23;;;;;;;;;;;;;;;;;;6225478;23;19908;-84
2023/01/16 04:53:48;;;;;;;;;;;;;;;3.12;100.00;67123.59;6216532;23;19912;-84
2023/01/16 04:56:13;;;;;;;;;;;;;;;;;;6215008;23;19908;-84
2023/01/16 04:58:38;;;;;;;;;;;;;;;3.03;100.00;67118.72;6214584;23;19966;-84
2023/01/16 05:01:03;;;;;;;;;;;;;;;3.02;100.00;67107.63;6189526;23;20238;-85
2023/01/16 05:03:29;;;;;;;;;;;;;;;2.98;100.00;67110.44;6193869;23;19954;-84
2023/01/16 05:05:54;;;;;;;;;;;;;;;;;;6217933;23;19970;-83
2023/01/16 05:08:19;;;;;;;;;;;;;;;2.91;100.00;67101.06;6216577;23;19935;-83
2023/01/16 05:10:45;;;;;;;;;;;;;;;2.90;100.00;67099.91;6190375;23;19911;-83
2023/01/16 05:13:10;;;;;;;;;;;;;;;2.90;100.00;67099.34;6190646;23;19934;-83
2023/01/16 05:15:35;;;;;;;;;;;;;;;2.87;100.00;67095.97;6217484;23;20292;-84
2023/01/16 05:18:01;;;;;;;;;;;;;;;2.88;100.00;67097.09;6214322;23;20084;-85
2023/01/16 05:20:26;;;;;;;;;;;;;;;;;;6217773;23;19919;-84
2023/01/16 05:22:51;;;;;;;;;;;;;;;2.91;100.00;67100.50;6217700;23;19919;-84
2023/01/16 05:25:16;;;;;;;;;;;;;;;2.88;100.00;67097.09;6216631;23;19912;-83
2023/01/16 05:27:41;;;;;;;;;;;;;;;2.87;100.00;67096.53;6216729;23;20534;-84
2023/01/16 05:30:07;;;;;;;;;;;;;;;2.86;100.00;67095.41;6218644;23;19931;-84
2023/01/16 05:32:33;;;;;;;;;;;;;;;2.82;100.00;67090.91;6219051;23;19911;-85
2023/01/16 05:35:01;;;;;;;;;;;;;;;2.81;100.00;67089.78;6189841;23;19938;-82
2023/01/16 05:37:27;;;;;;;;;;;;;;;2.81;100.00;67089.22;6218677;23;19912;-83
2023/01/16 05:39:56;;;;;;;;;;;;;;;2.83;100.00;67092.03;6216521;23;19955;-83
2023/01/16 05:42:23;;;;;;;;;;;;;;;2.86;100.00;67094.84;6213968;23;20234;-84
2023/01/16 05:44:48;;;;;;;;;;;;;;;2.84;100.00;67095.78;6211718;23;19947;-82
2023/01/16 05:47:14;;;;;;;;;;;;;;;2.84;100.00;67093.16;6181471;23;19986;-86
2023/01/16 05:49:39;;;;;;;;;;;;;;;2.84;100.00;67093.16;6183579;23;19934;-83
2023/01/16 05:52:04;;;;;;;;;;;;;;;2.87;100.00;67095.97;6214018;23;19922;-83
2023/01/16 05:54:29;;;;;;;;;;;;;;;2.85;100.00;67096.34;6190863;23;19923;-83
2023/01/16 05:56:54;;;;;;;;;;;;;;;;;;6188554;23;19908;-83
2023/01/16 05:59:20;;;;;;;;;;;;;;;2.86;100.00;67100.09;6215636;23;19912;-82
2023/01/16 06:01:45;;;;;;;;;;;;;;;2.88;100.00;67100.31;6217396;23;19908;-84
2023/01/16 06:04:10;;;;;;;;;;;;;;;2.83;100.00;67097.28;6189765;23;19912;-85
2023/01/16 06:06:35;;;;;;;;;;;;;;;;;;6217633;23;19912;-83
2023/01/16 06:09:00;;;;;;;;;;;;;;;2.85;100.00;67093.72;6190337;23;20223;-84
2023/01/16 06:11:26;;;;;;;;;;;;;;;2.85;100.00;67096.34;6216584;23;19908;-83
2023/01/16 06:13:51;;;;;;;;;;;;;;;;;;6219023;23;19911;-85
2023/01/16 06:16:16;;;;;;;;;;;;;;;2.86;100.00;67098.03;6189121;22;19912;-83
2023/01/16 06:18:41;;;;;;;;;;;;;;;2.88;100.00;67097.66;6216580;23;19979;-83
2023/01/16 06:21:07;;;;;;;;;;;;;;;2.90;100.00;67099.91;6217153;23;19911;-83
2023/01/16 06:23:32;;;;;;;;;;;;;;;2.89;100.00;67092.97;6216235;23;20314;-83
2023/01/16 06:25:57;;;;;;;;;;;;;;;;;;6216121;23;20065;-86
2023/01/16 06:28:22;;;;;;;;;;;;;;;;;;6225289;22;19923;-83
2023/01/16 06:30:52;;;;;;;;;;;;;;;3.01;100.00;67111.19;6217585;23;19908;-85
2023/01/16 06:33:17;;;;;;;;;;;;;;;3.04;100.00;67120.41;6214568;23;20687;-83
2023/01/16 06:35:42;;;;;;;;;;;;;;;;;;6215963;23;20002;-84
2023/01/16 06:38:07;;;;;;;;;;;;;;;;;;6214921;23;19916;-84
2023/01/16 06:40:32;;;;;;;;;;;;;;;3.11;100.00;67123.03;6216217;23;19938;-83
2023/01/16 06:42:58;;;;;;;;;;;;;;;3.13;100.00;67125.28;6215784;23;19908;-83
2023/01/16 06:45:24;;;;;;;;;;;;;;;3.16;100.00;67128.09;6216711;23;19912;-82
2023/01/16 06:47:52;;;;;;;;;;;;;;;3.17;100.00;67129.25;6218253;23;19912;-85
2023/01/16 06:50:18;;;;;;;;;;;;;;;3.17;100.00;67129.81;6217619;23;19932;-84
2023/01/16 06:52:43;;;;;;;;;;;;;;;3.20;100.00;67132.63;6219690;23;19923;-82
2023/01/16 06:55:08;;;;;;;;;;;;;;;3.22;100.00;67134.88;6190034;23;19908;-85
2023/01/16 06:57:35;;;;;;;;;;;;;;;3.24;100.00;67136.56;6218489;23;19994;-85
2023/01/16 07:00:00;;;;;;;;;;;;;;;3.27;100.00;67134.69;6218408;23;19908;-83
2023/01/16 07:02:26;;;;;;;;;;;;;;;3.27;100.00;67140.50;6218931;23;19915;-82
2023/01/16 07:04:51;;;;;;;;;;;;;;;3.28;100.00;67141.06;6192014;23;19912;-84
2023/01/16 07:07:16;;;;;;;;;;;;;;;3.30;100.00;67143.88;6216591;23;19935;-82
2023/01/16 07:09:41;;;;;;;;;;;;;;;;;;6218922;23;19916;-83
2023/01/16 07:12:06;;;;;;;;;;;;;;;3.35;100.00;67152.16;6219489;23;20414;-85
2023/01/16 07:22:45;;;;;;;;;;;;;;;;;;6197975;23;19919;-84
2023/01/16 07:25:18;;;;;;;;;;;;;;;3.48;100.00;67163.06;6221025;23;20246;-83
2023/01/16 07:27:44;;;;;;;;;;;;;;;;;;6195755;23;19942;-86
2023/01/16 07:30:10;;;;;;;;;;;;;;;3.50;100.00;67165.31;6222056;23;19908;-85
2023/01/16 07:32:35;;;;;;;;;;;;;;;3.53;100.00;67168.69;6216422;23;20476;-83
2023/01/16 07:35:01;;;;;;;;;;;;;;;3.53;100.00;67168.69;6218420;23;19908;-83
2023/01/16 07:37:26;;;;;;;;;;;;;;;;;;6218901;23;19948;-85
2023/01/16 07:39:51;;;;;;;;;;;;;;;;;;6217625;23;19912;-84
2023/01/16 07:42:16;;;;;;;;;;;;;;;3.60;100.00;67176.59;6189039;23;19911;-83
2023/01/16 07:44:42;;;;;;;;;;;;;;;;;;6216809;23;19982;-83
2023/01/16 07:47:07;;;;;;;;;;;;;;;3.65;100.00;67181.69;6215108;23;20265;-84
2023/01/16 07:49:32;;;;;;;;;;;;;;;;;;6219682;23;19908;-83
2023/01/16 07:51:57;;;;;;;;;;;;;;;3.68;100.00;67185.63;6217074;23;19919;-86
2023/01/16 07:54:23;;;;;;;;;;;;;;;3.71;100.00;67188.44;6219561;23;19916;-85
2023/01/16 07:56:48;;;;;;;;;;;;;;;3.72;100.00;67190.16;6217287;23;19919;-83
2023/01/16 07:59:14;;;;;;;;;;;;;;;3.72;100.00;67192.78;6214162;23;20231;-82
2023/01/16 08:01:39;;;;;;;;;;;;;;;3.72;100.00;67190.16;6188984;23;20026;-84
2023/01/16 08:04:04;;;;;;;;;;;;;;;3.77;100.00;67195.22;6215783;23;19908;-84
2023/01/16 08:06:30;;;;;;;;;;;;;;;;;;6216774;23;19991;-84
2023/01/16 08:08:55;;;;;;;;;;;;;;;3.74;100.00;67187.13;6188765;23;19908;-82
2023/01/16 08:11:35;;;;;;;;;;;;;;;3.70;100.00;67187.88;6218022;23;19911;-82
2023/01/16 08:14:01;;;;;;;;;;;;;;;3.68;100.00;67185.06;6218649;23;19919;-83
2023/01/16 08:16:26;;;;;;;;;;;;;;;3.64;100.00;67181.13;6217607;23;19911;-82
2023/01/16 08:18:51;;;;;;;;;;;;;;;3.64;100.00;67181.13;6219862;23;20249;-82
2023/01/16 08:21:17;;;;;;;;;;;;;;;3.60;100.00;67179.81;6190091;23;20243;-83
2023/01/16 08:23:43;;;;;;;;;;;;;;;3.60;100.00;67176.59;6219851;23;20285;-84
2023/01/16 08:26:09;;;;;;;;;;;;;;;3.58;100.00;67167.00;6217751;23;19918;-84
2023/01/16 08:28:34;;;;;;;;;;;;;;;3.59;100.00;67175.47;6189926;23;20305;-83
2023/01/16 08:31:08;;;;;;;;;;;;;;;3.56;100.00;67172.66;6190690;23;19918;-83
2023/01/16 08:33:35;;;;;;;;;;;;;;;3.57;100.00;67173.22;6218854;23;19919;-83
2023/01/16 08:36:00;;;;;;;;;;;;;;;3.54;100.00;67170.41;6214768;23;20341;-82
2023/01/16 08:38:25;;;;;;;;;;;;;;;;;;6218217;23;19908;-83
2023/01/16 08:40:50;;;;;;;;;;;;;;;3.51;100.00;67166.44;6219614;23;19958;-83
2023/01/16 08:51:35;;;;;;;;;;;;;;;;;;6194509;23;19934;-82
2023/01/16 08:54:00;;;;;;;;;;;;;;;3.49;100.00;67166.84;6220117;23;19919;-83
2023/01/16 08:56:25;;;;;;;;;;;;;;;3.48;100.00;67163.06;6218991;23;19907;-83
2023/01/16 08:58:50;;;;;;;;;;;;;;;;;;6220362;23;19915;-84
2023/01/16 09:01:16;;;;;;;;;;;;;;;3.47;100.00;67161.94;6217103;23;19911;-82
2023/01/16 09:03:41;;;;;;;;;;;;;;;3.47;100.00;67164.56;6220245;23;19918;-84
2023/01/16 09:06:07;;;;;;;;;;;;;;;3.47;100.00;67162.50;6220397;23;20311;-83
2023/01/16 09:08:32;;;;;;;;;;;;;;;3.47;100.00;67165.13;6220126;23;19947;-82
2023/01/16 09:13:50;;;;;;;;;;;;;;;3.47;100.00;67167.75;6196399;23;19942;-84
2023/01/16 09:16:20;;;;;;;;;;;;;;;3.49;100.00;67158.94;6221088;23;19911;-84
2023/01/16 09:18:45;;;;;;;;;;;;;;;;;;6221199;23;19930;-82
2023/01/16 09:21:10;;;;;;;;;;;;;;;;;;6219492;23;20381;-83
2023/01/16 09:23:36;;;;;;;;;;;;;;;;;;6219943;23;19908;-82
2023/01/16 09:26:01;;;;;;;;;;;;;;;3.53;100.00;67171.91;6220022;23;19916;-83
2023/01/16 09:28:26;;;;;;;;;;;;;;;;;;6221082;23;19939;-82
2023/01/16 09:30:51;;;;;;;;;;;;;;;;;;6223434;23;19912;-83
2023/01/16 09:33:17;;;;;;;;;;;;;;;3.60;100.00;67177.16;6221262;23;19918;-84
2023/01/16 09:35:42;;;;;;;;;;;;;;;3.61;100.00;67172.47;6218669;23;19912;-83
2023/01/16 09:38:07;;;;;;;;;;;;;;;3.63;100.00;67174.72;6219714;23;19931;-82
2023/01/16 09:40:32;;;;;;;;;;;;;;;3.64;100.00;67180.56;6220211;23;20491;-84
2023/01/16 09:45:46;;;;;;;;;;;;;;;3.70;100.00;67187.31;6218082;23;19930;-82
2023/01/16 09:48:15;;;;;;;;;;;;;;;3.71;100.00;67189.03;6218573;23;19912;-83
2023/01/16 09:50:50;;;;;;;;;;;;;;;3.71;100.00;67189.03;6220273;23;19907;-83
2023/01/16 09:58:46;;;;;;;;;;;;;;;;;;6220746;23;19915;-83
2023/01/16 10:01:13;;;;;;;;;;;;;;;3.81;100.00;67199.72;6221403;23;19911;-82
2023/01/16 10:03:42;;;;;;;;;;;;;;;3.78;100.00;67196.91;6221676;23;19908;-85
2023/01/16 10:06:10;;;;;;;;;;;;;;;3.81;100.00;67200.28;6221353;23;19907;-84
2023/01/16 10:08:48;;;;;;;;;;;;;;;3.82;100.00;67206.69;6221275;23;19907;-83
2023/01/16 10:11:28;;;;;;;;;;;;;;;3.82;100.00;67201.41;6219590;23;19908;-84
2023/01/16 10:13:59;;;;;;;;;;;;;;;3.87;100.00;67205.94;6222622;23;19916;-84
2023/01/16 10:16:24;;;;;;;;;;;;;;;;;;6194426;23;20344;-83
2023/01/16 10:18:52;;;;;;;;;;;;;;;;;;6221921;23;19975;-83
2023/01/16 10:21:37;;;;;;;;;;;;;;;3.91;100.00;67210.44;6222501;23;19966;-83
2023/01/16 10:24:21;;;;;;;;;;;;;;;3.92;100.00;67206.88;6223217;23;19999;-83
2023/01/16 10:26:52;;;;;;;;;;;;;;;3.93;100.00;67213.25;6221054;23;19908;-84
2023/01/16 10:29:28;;;;;;;;;;;;;;;3.94;100.00;67213.81;6195703;23;19970;-82
2023/01/16 10:32:02;;;;;;;;;;;;;;;3.94;100.00;67208.56;6224245;23;19916;-84
2023/01/16 10:34:27;;;;;;;;;;;;;;;;;;6223667;23;19915;-83
2023/01/16 10:36:56;;;;;;;;;;;;;;;3.95;100.00;67218.16;6222503;23;19911;-83
2023/01/16 10:39:31;;;;;;;;;;;;;;;3.95;100.00;67210.25;6223869;23;19971;-82
2023/01/16 10:50:36;;;;;;;;;;;;;;;;;;6199905;23;19922;-82
2023/01/16 10:53:01;;;;;;;;;;;;;;;;;;6225319;23;19916;-84
2023/01/16 10:55:26;;;;;;;;;;;;;;;;;;6223117;23;19931;-84
2023/01/16 10:58:02;;;;;;;;;;;;;;;3.98;100.00;67218.34;6225066;23;19911;-83
2023/01/16 11:00:37;;;;;;;;;;;;;;;4.00;100.00;67223.22;6225983;23;19908;-83
2023/01/16 11:03:23;;;;;;;;;;;;;;;4.02;100.00;67223.41;6225417;23;19918;-83
2023/01/16 11:05:48;;;;;;;;;;;;;;;4.04;100.00;67225.69;6150913;23;19908;-84
2023/01/16 11:08:15;;;;;;;;;;;;;;;4.05;100.00;67218.91;6225894;23;19912;-83
2023/01/16 11:10:42;;;;;;;;;;;;;;;4.06;100.00;67230.56;6225548;23;19919;-84
2023/01/16 11:18:48;;;;;;;;;;;;;;;4.05;100.00;67220.97;6224946;23;19915;-83
2023/01/16 11:21:13;;;;;;;;;;;;;;;;;;6225587;23;20314;-83
2023/01/16 11:23:41;;;;;;;;;;;;;;;4.07;100.00;67228.50;6227133;23;19912;-84
2023/01/16 11:26:07;;;;;;;;;;;;;;;4.06;100.00;67233.22;6224380;23;19915;-84
2023/01/16 11:28:34;;;;;;;;;;;;;;;4.07;100.00;67223.25;6226677;23;19911;-84
2023/01/16 11:31:22;;;;;;;;;;;;;;;4.07;100.00;67228.50;6227743;23;20110;-84
2023/01/16 11:33:54;;;;;;;;;;;;;;;4.06;100.00;67222.69;6212645;22;19926;-84
2023/01/16 11:36:19;;;;;;;;;;;;;;;;;;6231916;23;19940;-83
2023/01/16 11:38:45;;;;;;;;;;;;;;;4.08;100.00;67224.34;6235068;23;19896;-83
2023/01/16 11:41:11;;;;;;;;;;;;;;;4.07;100.00;67228.50;6233489;23;19915;-83
2023/01/16 11:46:29;;;;;;;;;;;;;;;4.07;100.00;67228.50;6219821;23;19919;-83
2023/01/16 11:49:00;;;;;;;;;;;;;;;4.09;100.00;67230.78;6219751;23;19907;-83
2023/01/16 11:51:27;;;;;;;;;;;;;;;4.06;100.00;67227.94;6221254;23;19915;-83
2023/01/16 11:53:54;;;;;;;;;;;;;;;4.09;100.00;67225.50;6220486;23;20193;-82
2023/01/16 11:56:19;;;;;;;;;;;;;;;;;;6194119;23;19907;-81
2023/01/16 11:58:44;;;;;;;;;;;;;;;;;;6193543;23;20031;-83
2023/01/16 12:01:22;;;;;;;;;;;;;;;4.15;100.00;67232.28;6193389;23;20242;-82
2023/01/16 12:03:48;;;;;;;;;;;;;;;4.20;100.00;67243.19;6222628;23;19908;-82
2023/01/16 12:06:13;;;;;;;;;;;;;;;;;;6221090;23;20549;-83
2023/01/16 12:08:44;;;;;;;;;;;;;;;4.33;100.00;67257.28;6197000;23;19915;-83
2023/01/16 12:11:09;;;;;;;;;;;;;;;4.42;100.00;67261.59;6223492;23;19974;-83
2023/01/16 12:16:27;;;;;;;;;;;;;;;;;;6221532;23;19931;-83
2023/01/16 12:18:53;;;;;;;;;;;;;;;;;;6223838;23;19908;-83
2023/01/16 12:21:18;;;;;;;;;;;;;;;;;;6225806;23;19907;-82
2023/01/16 12:23:51;;;;;;;;;;;;;;;4.49;100.00;67275.34;6225697;23;19935;-83
2023/01/16 12:26:20;;;;;;;;;;;;;;;4.52;100.00;67278.19;6224239;23;19908;-83
2023/01/16 12:29:15;;;;;;;;;;;;;;;4.51;100.00;67277.59;6222683;23;19920;-83
2023/01/16 12:31:41;;;;;;;;;;;;;;;4.55;100.00;67283.63;6179871;23;19912;-83
2023/01/16 12:34:12;;;;;;;;;;;;;;;4.58;100.00;67284.38;6196856;22;19908;-82
2023/01/16 12:36:46;;;;;;;;;;;;;;;4.58;100.00;67284.94;6202136;23;19908;-83
2023/01/16 12:39:14;;;;;;;;;;;;;;;4.59;100.00;67280.22;6215649;23;19915;-83
2023/01/16 12:45:04;;;;;;;;;;;;;;;4.58;100.00;67279.69;6196809;23;19974;-83
2023/01/16 12:47:37;;;;;;;;;;;;;;;4.62;100.00;67289.44;6193264;23;19908;-81
2023/01/16 12:50:17;;;;;;;;;;;;;;;4.65;100.00;67287.56;6191396;23;19912;-83
2023/01/16 12:52:48;;;;;;;;;;;;;;;4.70;100.00;67298.50;6219269;23;19934;-83
2023/01/16 12:55:28;;;;;;;;;;;;;;;4.74;100.00;67297.72;6192164;23;19912;-82
2023/01/16 12:57:53;;;;;;;;;;;;;;;;;;6221455;23;19915;-82
2023/01/16 13:00:31;;;;;;;;;;;;;;;4.80;100.00;67308.66;6218950;23;19908;-82
2023/01/16 13:03:16;;;;;;;;;;;;;;;4.80;100.00;67303.38;6223084;23;19935;-83
2023/01/16 13:05:43;;;;;;;;;;;;;;;4.79;100.00;67307.53;6245444;23;20304;-82
2023/01/16 13:08:22;;;;;;;;;;;;;;;4.74;100.00;67303.00;6219721;23;19914;-82
2023/01/16 13:13:33;;;;;;;;;;;;;;;;;;6221554;23;19919;-81
2023/01/16 13:15:58;;;;;;;;;;;;;;;;;;6220775;23;19912;-83
2023/01/16 13:18:33;;;;;;;;;;;;;;;4.74;100.00;67303.00;6220898;23;19911;-82
2023/01/16 13:20:58;;;;;;;;;;;;;;;;;;6221018;23;19939;-82
2023/01/16 13:23:24;;;;;;;;;;;;;;;4.78;100.00;67306.41;6220364;23;19907;-83
2023/01/16 13:25:56;;;;;;;;;;;;;;;4.75;100.00;67304.13;6195885;23;19908;-82
2023/01/16 13:28:27;;;;;;;;;;;;;;;4.74;100.00;67302.44;6220042;23;20007;-83
2023/01/16 13:30:53;;;;;;;;;;;;;;;;;;6221798;23;20261;-82
2023/01/16 13:33:18;;;;;;;;;;;;;;;;;;6219442;23;19912;-82
2023/01/16 13:35:43;;;;;;;;;;;;;;;;;;6218864;23;19908;-81
2023/01/16 13:38:08;;;;;;;;;;;;;;;;;;6219514;23;19912;-82
2023/01/16 13:40:52;;;;;;;;;;;;;;;4.57;100.00;67283.25;6216341;23;19966;-82
2023/01/16 13:46:01;;;;;;;;;;;;;;;;;;6216404;23;19990;-82
2023/01/16 13:48:36;;;;;;;;;;;;;;;4.46;100.00;67271.38;6221153;23;19907;-81
2023/01/16 13:51:15;;;;;;;;;;;;;;;4.42;100.00;67262.16;6221695;23;19966;-81
2023/01/16 13:53:41;;;;;;;;;;;;;;;4.37;100.00;67261.78;6218621;23;19915;-81
2023/01/16 13:56:06;;;;;;;;;;;;;;;;;;6217125;23;20494;-83
2023/01/16 13:58:32;;;;;;;;;;;;;;;4.34;100.00;67257.84;6221066;23;20238;-82
2023/01/16 14:00:57;;;;;;;;;;;;;;;4.33;100.00;67256.72;6192970;23;19954;-82
2023/01/16 14:03:24;;;;;;;;;;;;;;;4.33;100.00;67257.28;6222452;23;19908;-82
2023/01/16 14:05:49;;;;;;;;;;;;;;;;;;6222166;23;19914;-83
2023/01/16 14:11:02;;;;;;;;;;;;;;;;;;6218194;23;20249;-83
2023/01/16 14:13:28;;;;;;;;;;;;;;;;;;6218741;23;20321;-82
2023/01/16 14:18:47;;;;;;;;;;;;;;;4.30;100.00;67262.38;6218020;23;19914;-82
2023/01/16 14:21:24;;;;;;;;;;;;;;;4.29;100.00;67253.34;6213264;23;19912;-82
2023/01/16 14:24:01;;;;;;;;;;;;;;;;;;6216451;23;20320;-83
2023/01/16 14:26:27;;;;;;;;;;;;;;;;;;6211419;23;19923;-83
2023/01/16 14:28:54;;;;;;;;;;;;;;;;;;6212975;23;19915;-82
2023/01/16 14:31:48;;;;;;;;;;;;;;;4.24;100.00;67247.13;6214826;23;19907;-82
2023/01/16 14:34:16;;;;;;;;;;;;;;;4.26;100.00;67249.94;6180284;23;19948;-82
2023/01/16 14:36:44;;;;;;;;;;;;;;;4.27;100.00;67245.81;6212577;23;20686;-82
2023/01/16 14:39:09;;;;;;;;;;;;;;;;;;6212545;23;19908;-82
2023/01/16 14:55:48;;;;;;;;;;;;;;;;;;6213875;23;19914;-82
2023/01/16 14:58:13;;;;;;;;;;;;;;;;;;6213344;23;19999;-82
2023/01/16 15:00:38;;;;;;;;;;;;;;;;;;6213133;23;19971;-82
2023/01/16 15:03:03;;;;;;;;;;;;;;;;;;6189521;23;19908;-82
2023/01/16 15:05:49;;;;;;;;;;;;;;;4.21;100.00;67244.31;6217166;23;19912;-82
2023/01/16 15:08:16;;;;;;;;;;;;;;;4.21;100.00;67244.31;6215516;23;19918;-82
2023/01/16 15:10:44;;;;;;;;;;;;;;;;;;6216395;23;19907;-82